createdAt,value
2018-12-10T00:01:22.024Z,20.2
2018-12-10T00:04:27.933Z,20.2
2018-12-10T00:07:33.857Z,20.2
2018-12-10T00:10:41.616Z,20.2
2018-12-10T00:13:47.845Z,20.2
2018-12-10T00:16:53.782Z,20.2
2018-12-10T00:19:59.875Z,20.2
2018-12-10T00:23:05.896Z,20.2
2018-12-10T00:26:14.337Z,20.2
2018-12-10T00:29:20.358Z,20.1
2018-12-10T00:32:26.240Z,20.1
2018-12-10T00:35:32.216Z,20.2
2018-12-10T00:38:38.178Z,20.1
2018-12-10T00:41:44.111Z,20.1
2018-12-10T00:44:50.039Z,20.1
2018-12-10T00:47:55.919Z,20.1
2018-12-10T00:51:01.919Z,20.2
2018-12-10T00:54:07.959Z,20.2
2018-12-10T00:57:13.901Z,20.1
2018-12-10T01:00:19.978Z,20.1
2018-12-10T01:03:25.942Z,20.1
2018-12-10T01:06:31.887Z,20.1
2018-12-10T01:09:37.842Z,20.1
2018-12-10T01:12:43.901Z,20.1
2018-12-10T01:15:49.788Z,20.1
2018-12-10T01:18:55.761Z,20.1
2018-12-10T01:22:01.677Z,20.1
2018-12-10T01:25:07.686Z,20.1
2018-12-10T01:28:13.589Z,20.1
2018-12-10T01:31:19.530Z,20.2
2018-12-10T01:34:25.407Z,20.2
2018-12-10T01:37:31.367Z,20.2
2018-12-10T01:40:37.339Z,20.2
2018-12-10T01:43:43.293Z,20.2
2018-12-10T01:46:49.252Z,20.2
2018-12-10T01:49:55.100Z,20.2
2018-12-10T01:53:01.048Z,20.3
2018-12-10T01:56:07.017Z,20.2
2018-12-10T01:59:12.923Z,20.3
2018-12-10T02:02:18.859Z,20.3
2018-12-10T02:05:24.790Z,20.3
2018-12-10T02:08:30.902Z,20.3
2018-12-10T02:11:36.874Z,20.3
2018-12-10T02:14:42.771Z,20.4
2018-12-10T02:17:48.762Z,20.4
2018-12-10T02:20:54.703Z,20.4
2018-12-10T02:24:00.646Z,20.5
2018-12-10T02:27:06.653Z,20.5
2018-12-10T02:30:12.571Z,20.5
2018-12-10T02:33:18.580Z,20.6
2018-12-10T02:36:24.540Z,20.7
2018-12-10T02:39:30.461Z,20.7
2018-12-10T02:42:36.519Z,20.8
2018-12-10T02:45:42.369Z,20.8
2018-12-10T02:48:48.375Z,20.9
2018-12-10T02:51:54.446Z,20.9
2018-12-10T02:55:02.633Z,21
2018-12-10T02:58:08.564Z,21
2018-12-10T03:01:14.579Z,21.1
2018-12-10T03:04:20.579Z,21.1
2018-12-10T03:07:26.556Z,21.2
2018-12-10T03:10:32.603Z,21.2
2018-12-10T03:13:38.454Z,21.3
2018-12-10T03:16:44.420Z,21.3
2018-12-10T03:19:50.370Z,21.3
2018-12-10T03:22:56.390Z,21.4
2018-12-10T03:26:02.428Z,21.4
2018-12-10T03:29:08.416Z,21.4
2018-12-10T03:32:14.413Z,21.5
2018-12-10T03:35:20.352Z,21.5
2018-12-10T03:38:26.440Z,21.6
2018-12-10T03:41:32.347Z,21.6
2018-12-10T03:44:38.269Z,21.6
2018-12-10T03:47:44.327Z,21.6
2018-12-10T03:50:50.276Z,21.7
2018-12-10T03:53:56.333Z,21.7
2018-12-10T03:57:02.216Z,21.8
2018-12-10T04:00:08.180Z,21.8
2018-12-10T04:03:14.309Z,21.9
2018-12-10T04:06:21.303Z,21.9
2018-12-10T04:09:27.155Z,22
2018-12-10T04:12:33.128Z,22.1
2018-12-10T04:15:39.196Z,22.1
2018-12-10T04:18:45.136Z,22.1
2018-12-10T04:21:51.117Z,22.1
2018-12-10T04:24:57.107Z,22.2
2018-12-10T04:28:03.283Z,22.2
2018-12-10T04:31:09.249Z,22.3
2018-12-10T04:34:15.147Z,22.3
2018-12-10T04:37:21.176Z,22.4
2018-12-10T04:40:27.099Z,22.4
2018-12-10T04:43:33.133Z,22.4
2018-12-10T04:46:39.086Z,22.5
2018-12-10T04:49:45.268Z,22.5
2018-12-10T04:52:51.105Z,22.6
2018-12-10T04:55:57.051Z,22.6
2018-12-10T04:59:03.018Z,22.7
2018-12-10T05:02:08.874Z,22.7
2018-12-10T05:05:14.954Z,22.7
2018-12-10T05:08:20.944Z,22.8
2018-12-10T05:11:26.886Z,22.8
2018-12-10T05:14:32.923Z,22.8
2018-12-10T05:17:38.921Z,22.8
2018-12-10T05:20:44.838Z,22.9
2018-12-10T05:23:50.821Z,22.9
2018-12-10T05:26:56.867Z,22.9
2018-12-10T05:30:04.957Z,23
2018-12-10T05:33:10.888Z,23
2018-12-10T05:36:16.776Z,23
2018-12-10T05:39:22.858Z,23
2018-12-10T05:42:28.868Z,23
2018-12-10T05:45:37.430Z,23.1
2018-12-10T05:48:43.281Z,23.1
2018-12-10T05:51:49.187Z,23.1
2018-12-10T05:54:55.097Z,23.1
2018-12-10T05:58:01.114Z,23.2
2018-12-10T06:01:07.043Z,23.2
2018-12-10T06:04:12.983Z,23.2
2018-12-10T06:07:18.935Z,23.2
2018-12-10T06:10:24.887Z,23.3
2018-12-10T06:13:30.755Z,23.3
2018-12-10T06:16:36.761Z,23.3
2018-12-10T06:19:42.689Z,23.3
2018-12-10T06:22:48.788Z,23.3
2018-12-10T06:25:55.005Z,23.4
2018-12-10T06:29:00.923Z,23.4
2018-12-10T06:32:07.026Z,23.4
2018-12-10T06:35:12.992Z,23.4
2018-12-10T06:38:18.958Z,23.3
2018-12-10T06:41:25.050Z,23.4
2018-12-10T06:44:30.954Z,23.5
2018-12-10T06:47:37.068Z,23.5
2018-12-10T06:50:43.167Z,23.6
2018-12-10T06:53:49.102Z,23.7
2018-12-10T06:56:55.113Z,23.7
2018-12-10T07:00:01.177Z,23.8
2018-12-10T07:03:07.132Z,23.9
2018-12-10T07:06:13.112Z,23.9
2018-12-10T07:09:19.124Z,23.9
2018-12-10T07:12:25.093Z,24
2018-12-10T07:15:30.966Z,24.2
2018-12-10T07:18:37.016Z,24.2
2018-12-10T07:21:42.963Z,24.3
2018-12-10T07:24:48.966Z,24.3
2018-12-10T07:27:55.045Z,24.3
2018-12-10T07:31:02.037Z,24.4
2018-12-10T07:34:07.948Z,24.4
2018-12-10T07:37:14.197Z,24.4
2018-12-10T07:40:20.272Z,24.5
2018-12-10T07:43:26.330Z,24.5
2018-12-10T07:46:33.588Z,24.5
2018-12-10T07:49:39.611Z,24.6
2018-12-10T07:52:45.601Z,24.6
2018-12-10T07:55:51.600Z,24.6
2018-12-10T07:58:58.054Z,24.6
2018-12-10T08:02:04.004Z,24.6
2018-12-10T08:05:12.391Z,24.7
2018-12-10T08:08:19.669Z,24.7
2018-12-10T08:11:25.693Z,24.7
2018-12-10T08:14:31.847Z,24.8
2018-12-10T08:17:38.858Z,24.8
2018-12-10T08:20:45.531Z,24.8
2018-12-10T08:23:51.700Z,24.8
2018-12-10T08:26:57.722Z,24.9
2018-12-10T08:30:03.745Z,24.9
2018-12-10T08:33:09.750Z,25
2018-12-10T08:36:15.708Z,25
2018-12-10T08:39:21.793Z,25
2018-12-10T08:42:27.823Z,25
2018-12-10T08:45:33.907Z,25
2018-12-10T08:48:39.821Z,25
2018-12-10T08:51:47.080Z,25.1
2018-12-10T08:54:54.174Z,25.1
2018-12-10T08:58:03.167Z,25.1
2018-12-10T09:01:10.017Z,25.1
2018-12-10T09:04:16.360Z,25.1
2018-12-10T09:07:22.403Z,25.1
2018-12-10T09:10:29.460Z,25.2
2018-12-10T09:13:37.166Z,25.2
2018-12-10T09:16:43.531Z,25.3
2018-12-10T09:19:49.512Z,25.3
2018-12-10T09:22:55.475Z,25.4
2018-12-10T09:26:01.516Z,25.4
2018-12-10T09:29:07.585Z,25.4
2018-12-10T09:32:14.480Z,25.3
2018-12-10T09:35:20.445Z,25.3
2018-12-10T09:38:26.460Z,25.3
2018-12-10T09:41:32.512Z,25.4
2018-12-10T09:44:39.182Z,25.3
2018-12-10T09:47:46.062Z,25.4
2018-12-10T09:50:52.126Z,25.5
2018-12-10T09:53:58.075Z,25.5
2018-12-10T09:57:03.994Z,25.4
2018-12-10T10:00:09.975Z,25.5
2018-12-10T10:03:16.060Z,25.4
2018-12-10T10:06:22.102Z,25.4
2018-12-10T10:09:28.198Z,25.4
2018-12-10T10:12:34.140Z,25.5
2018-12-10T10:15:40.110Z,25.5
2018-12-10T10:18:46.139Z,25.5
2018-12-10T10:21:53.023Z,25.5
2018-12-10T10:24:58.999Z,25.5
2018-12-10T10:28:04.965Z,25.5
2018-12-10T10:31:10.914Z,25.5
2018-12-10T10:34:17.074Z,25.5
2018-12-10T10:37:23.166Z,25.6
2018-12-10T10:40:29.089Z,25.6
2018-12-10T10:43:35.193Z,25.7
2018-12-10T10:46:42.122Z,25.7
2018-12-10T10:49:48.088Z,25.7
2018-12-10T10:52:54.077Z,25.7
2018-12-10T10:56:00.219Z,25.7
2018-12-10T10:59:07.259Z,25.7
2018-12-10T11:02:13.245Z,25.7
2018-12-10T11:05:19.235Z,25.7
2018-12-10T11:08:25.212Z,25.7
2018-12-10T11:11:31.221Z,25.7
2018-12-10T11:14:38.173Z,25.7
2018-12-10T11:17:45.227Z,25.7
2018-12-10T11:20:52.632Z,25.7
2018-12-10T11:24:01.089Z,25.8
2018-12-10T11:27:09.414Z,25.7
2018-12-10T11:30:16.815Z,25.7
2018-12-10T11:33:22.857Z,25.7
2018-12-10T11:36:28.918Z,25.8
2018-12-10T11:39:35.977Z,25.8
2018-12-10T11:42:43.219Z,25.8
2018-12-10T11:45:49.686Z,25.7
2018-12-10T11:48:55.703Z,25.7
2018-12-10T11:52:01.870Z,25.7
2018-12-10T11:55:07.775Z,25.8
2018-12-10T11:58:14.033Z,25.8
2018-12-10T12:01:20.060Z,25.8
2018-12-10T12:04:25.948Z,25.8
2018-12-10T12:07:33.082Z,25.8
2018-12-10T12:10:40.313Z,25.9
2018-12-10T12:13:46.496Z,25.8
2018-12-10T12:16:52.810Z,25.9
2018-12-10T12:19:59.912Z,25.9
2018-12-10T12:23:05.970Z,25.9
2018-12-10T12:26:11.970Z,25.9
2018-12-10T12:29:18.017Z,26
2018-12-10T12:32:24.017Z,26
2018-12-10T12:35:29.919Z,26
2018-12-10T12:38:35.914Z,26
2018-12-10T12:41:42.121Z,26
2018-12-10T12:44:48.063Z,26
2018-12-10T12:47:54.049Z,26
2018-12-10T12:51:02.052Z,26
2018-12-10T12:54:08.060Z,26.1
2018-12-10T12:57:14.164Z,26.1
2018-12-10T13:00:26.951Z,26.1
2018-12-10T13:03:33.461Z,26.1
2018-12-10T13:06:39.463Z,26.2
2018-12-10T13:09:45.399Z,26.2
2018-12-10T13:12:51.495Z,26.2
2018-12-10T13:16:00.168Z,26.3
2018-12-10T13:19:06.141Z,26.2
2018-12-10T13:22:12.036Z,26.2
2018-12-10T13:25:18.347Z,26.3
2018-12-10T13:28:24.389Z,26.2
2018-12-10T13:31:30.384Z,26.3
2018-12-10T13:34:36.495Z,26.3
2018-12-10T13:37:45.692Z,26.3
2018-12-10T13:40:53.167Z,26.2
2018-12-10T13:44:02.106Z,26.2
2018-12-10T13:47:08.198Z,26.2
2018-12-10T13:50:14.279Z,26.2
2018-12-10T13:53:20.665Z,26.2
2018-12-10T13:56:30.062Z,26.3
2018-12-10T13:59:36.893Z,26.2
2018-12-10T14:02:42.847Z,26.3
2018-12-10T14:05:49.762Z,26.4
2018-12-10T14:08:55.889Z,26.3
2018-12-10T14:12:02.187Z,26.3
2018-12-10T14:15:08.288Z,26.4
2018-12-10T14:18:14.256Z,26.4
2018-12-10T14:21:20.650Z,26.3
2018-12-10T14:24:28.662Z,26.2
2018-12-10T14:27:34.703Z,26.2
2018-12-10T14:30:40.681Z,26.1
2018-12-10T14:33:46.631Z,26.1
2018-12-10T14:36:52.508Z,26
2018-12-10T14:39:58.548Z,25.9
2018-12-10T14:43:04.585Z,25.9
2018-12-10T14:46:11.558Z,25.9
2018-12-10T14:49:17.456Z,25.8
2018-12-10T14:52:23.748Z,25.8
2018-12-10T14:55:29.697Z,25.8
2018-12-10T14:58:35.752Z,25.7
2018-12-10T15:01:41.714Z,25.7
2018-12-10T15:04:47.654Z,25.6
2018-12-10T15:07:53.640Z,25.6
2018-12-10T15:10:59.690Z,25.6
2018-12-10T15:14:08.127Z,25.6
2018-12-10T15:17:15.248Z,25.6
2018-12-10T15:20:21.155Z,25.5
2018-12-10T15:23:27.312Z,25.5
2018-12-10T15:26:33.284Z,25.5
2018-12-10T15:29:39.325Z,25.4
2018-12-10T15:32:45.408Z,25.4
2018-12-10T15:35:51.485Z,25.4
2018-12-10T15:38:57.425Z,25.4
2018-12-10T15:42:03.393Z,25.4
2018-12-10T15:45:09.331Z,25.4
2018-12-10T15:48:15.552Z,25.4
2018-12-10T15:51:21.464Z,25.3
2018-12-10T15:54:27.496Z,25.3
2018-12-10T15:57:34.360Z,25.3
2018-12-10T16:00:40.420Z,25.3
2018-12-10T16:03:46.328Z,25.3
2018-12-10T16:06:55.234Z,25.3
2018-12-10T16:10:01.231Z,25.3
2018-12-10T16:13:07.181Z,25.2
2018-12-10T16:16:13.232Z,25.2
2018-12-10T16:19:19.317Z,25.2
2018-12-10T16:22:25.284Z,25.2
2018-12-10T16:25:31.227Z,25.2
2018-12-10T16:28:37.443Z,25.2
2018-12-10T16:31:43.406Z,25.2
2018-12-10T16:34:49.487Z,25.2
2018-12-10T16:37:55.370Z,25.1
2018-12-10T16:41:01.321Z,25.1
2018-12-10T16:44:07.171Z,25.1
2018-12-10T16:47:13.112Z,25.1
2018-12-10T16:50:19.067Z,25.1
2018-12-10T16:53:24.966Z,25.1
2018-12-10T16:56:30.942Z,25.1
2018-12-10T16:59:36.872Z,25.1
2018-12-10T17:02:42.842Z,25.1
2018-12-10T17:05:49.090Z,25
2018-12-10T17:08:55.065Z,25
2018-12-10T17:12:01.092Z,25
2018-12-10T17:15:07.130Z,25
2018-12-10T17:18:13.038Z,25
2018-12-10T17:21:19.063Z,25
2018-12-10T17:24:25.035Z,25
2018-12-10T17:27:31.012Z,25
2018-12-10T17:30:37.043Z,24.9
2018-12-10T17:33:43.241Z,24.9
2018-12-10T17:36:49.100Z,24.9
2018-12-10T17:39:55.078Z,24.9
2018-12-10T17:43:01.109Z,24.8
2018-12-10T17:46:07.065Z,24.8
2018-12-10T17:49:12.940Z,24.8
2018-12-10T17:52:19.022Z,24.7
2018-12-10T17:55:24.876Z,24.7
2018-12-10T17:58:30.948Z,24.7
2018-12-10T18:01:36.869Z,24.6
2018-12-10T18:04:42.859Z,24.6
2018-12-10T18:07:48.900Z,24.6
2018-12-10T18:10:54.903Z,24.6
2018-12-10T18:14:01.003Z,24.6
2018-12-10T18:17:07.058Z,24.5
2018-12-10T18:20:12.954Z,24.5
2018-12-10T18:23:19.083Z,24.5
2018-12-10T18:26:25.100Z,24.4
2018-12-10T18:29:31.243Z,24.4
2018-12-10T18:32:37.345Z,24.3
2018-12-10T18:35:43.397Z,24.3
2018-12-10T18:38:52.287Z,24.3
2018-12-10T18:41:58.366Z,24.3
2018-12-10T18:45:04.513Z,24.3
2018-12-10T18:48:10.779Z,24.3
2018-12-10T18:51:18.066Z,24.3
2018-12-10T18:54:27.411Z,24.2
2018-12-10T18:57:34.456Z,24.2
2018-12-10T19:00:41.792Z,24.2
2018-12-10T19:03:48.722Z,24.2
2018-12-10T19:06:55.086Z,24.1
2018-12-10T19:10:01.899Z,24.1
2018-12-10T19:13:08.273Z,24.1
2018-12-10T19:16:15.298Z,24.1
2018-12-10T19:19:22.359Z,24
2018-12-10T19:22:29.732Z,24
2018-12-10T19:25:36.847Z,24
2018-12-10T19:28:43.443Z,24
2018-12-10T19:31:49.927Z,24
2018-12-10T19:34:56.599Z,23.9
2018-12-10T19:38:02.932Z,23.9
2018-12-10T19:41:09.530Z,23.9
2018-12-10T19:44:15.983Z,23.9
2018-12-10T19:47:22.306Z,23.9
2018-12-10T19:50:28.759Z,23.9
2018-12-10T19:53:35.675Z,23.8
2018-12-10T19:56:42.206Z,23.8
2018-12-10T19:59:48.713Z,23.8
2018-12-10T20:02:55.026Z,23.7
2018-12-10T20:06:07.646Z,23.7
2018-12-10T20:09:13.770Z,23.6
2018-12-10T20:12:19.829Z,23.6
2018-12-10T20:15:25.777Z,23.6
2018-12-10T20:18:31.868Z,23.5
2018-12-10T20:21:37.860Z,23.5
2018-12-10T20:24:43.848Z,23.4
2018-12-10T20:27:52.734Z,23.4
2018-12-10T20:30:58.717Z,23.4
2018-12-10T20:34:04.858Z,23.3
2018-12-10T20:37:10.883Z,23.2
2018-12-10T20:40:16.951Z,23.2
2018-12-10T20:43:23.116Z,23.2
2018-12-10T20:46:28.997Z,23.2
2018-12-10T20:49:35.030Z,23.1
2018-12-10T20:52:40.963Z,23.1
2018-12-10T20:55:47.202Z,23.1
2018-12-10T20:58:53.241Z,23
2018-12-10T21:01:59.328Z,23
2018-12-10T21:05:05.313Z,23
2018-12-10T21:08:11.198Z,22.9
2018-12-10T21:11:17.385Z,22.9
2018-12-10T21:14:23.349Z,22.9
2018-12-10T21:17:29.277Z,22.9
2018-12-10T21:20:35.240Z,22.8
2018-12-10T21:23:41.183Z,22.8
2018-12-10T21:26:47.125Z,22.8
2018-12-10T21:29:53.038Z,22.7
2018-12-10T21:32:59.138Z,22.7
2018-12-10T21:36:05.126Z,22.7
2018-12-10T21:39:11.013Z,22.7
2018-12-10T21:42:17.029Z,22.6
2018-12-10T21:45:23.083Z,22.6
2018-12-10T21:48:29.138Z,22.6
2018-12-10T21:51:35.148Z,22.6
2018-12-10T21:54:41.004Z,22.6
2018-12-10T21:57:47.008Z,22.5
2018-12-10T22:00:52.933Z,22.5
2018-12-10T22:03:58.871Z,22.6
2018-12-10T22:07:04.864Z,22.6
2018-12-10T22:10:10.809Z,22.6
2018-12-10T22:13:16.741Z,22.5
2018-12-10T22:16:22.619Z,22.5
2018-12-10T22:19:28.633Z,22.5
2018-12-10T22:22:34.651Z,22.5
2018-12-10T22:25:40.604Z,22.4
2018-12-10T22:28:46.573Z,22.4
2018-12-10T22:31:52.567Z,22.4
2018-12-10T22:34:58.468Z,22.4
2018-12-10T22:38:04.455Z,22.3
2018-12-10T22:41:10.388Z,22.3
2018-12-10T22:44:16.404Z,22.3
2018-12-10T22:47:22.395Z,22.3
2018-12-10T22:50:29.181Z,22.2
2018-12-10T22:53:35.316Z,22.2
2018-12-10T22:56:41.277Z,22.2
2018-12-10T22:59:47.174Z,22.2
2018-12-10T23:02:53.216Z,22.1
2018-12-10T23:05:59.167Z,22.1
2018-12-10T23:09:05.059Z,22.1
2018-12-10T23:12:10.993Z,22.1
2018-12-10T23:15:17.050Z,22
2018-12-10T23:18:22.930Z,22
2018-12-10T23:21:28.881Z,22
2018-12-10T23:24:34.954Z,22
2018-12-10T23:27:40.837Z,22
2018-12-10T23:30:46.771Z,22
2018-12-10T23:33:52.680Z,21.9
2018-12-10T23:36:58.712Z,21.9
2018-12-10T23:40:04.697Z,21.9
2018-12-10T23:43:10.658Z,21.9
2018-12-10T23:46:16.570Z,21.9
2018-12-10T23:49:22.609Z,21.8
2018-12-10T23:52:28.561Z,21.8
2018-12-10T23:55:34.503Z,21.8
2018-12-10T23:58:40.468Z,21.8
